Time;durP1;ratioP1;P1;durP2;ratioP2;P2;SDS_P1;SDS_P2;PMS_P1;PMS_P2;Temp;Humidity;BMP_temperature;BMP_pressure;BME280_temperature;BME280_humidity;BME280_pressure;Samples;Min_cycle;Max_cycle;Signal;HPM_P1;HPM_P2
2023/11/23 00:02:14;;;;;;;23.88;6.88;;;8.70;99.90;;;;;;6206937;23;20013;-77
2023/11/23 00:04:40;;;;;;;19.63;8.18;;;8.70;99.90;;;;;;6207765;23;20008;-76
2023/11/23 00:07:05;;;;;;;17.70;6.30;;;8.80;99.90;;;;;;6207022;23;20039;-74
2023/11/23 00:09:31;;;;;;;19.50;6.13;;;8.80;99.90;;;;;;6207324;23;20005;-75
2023/11/23 00:11:56;;;;;;;20.95;6.88;;;8.80;99.90;;;;;;6208777;23;20005;-78
2023/11/23 00:14:22;;;;;;;15.68;5.82;;;8.80;99.90;;;;;;6208201;23;20017;-76
2023/11/23 00:16:47;;;;;;;16.13;6.45;;;8.80;99.90;;;;;;6208862;23;20008;-78
2023/11/23 00:19:13;;;;;;;14.27;5.93;;;8.80;99.90;;;;;;6208766;23;20012;-76
2023/11/23 00:21:39;;;;;;;11.25;5.45;;;8.80;99.90;;;;;;6207595;23;20431;-77
2023/11/23 00:24:05;;;;;;;14.75;6.20;;;8.80;99.90;;;;;;6206957;23;20008;-76
2023/11/23 00:26:31;;;;;;;15.80;5.93;;;8.80;99.90;;;;;;6207363;23;20044;-76
2023/11/23 00:28:57;;;;;;;17.85;6.13;;;8.90;99.90;;;;;;6208519;23;20457;-78
2023/11/23 00:31:23;;;;;;;16.67;5.43;;;8.90;99.90;;;;;;6207377;23;20092;-74
2023/11/23 00:33:48;;;;;;;13.55;5.95;;;8.90;99.90;;;;;;6208935;23;20028;-76
2023/11/23 00:36:14;;;;;;;20.45;6.38;;;8.90;99.90;;;;;;6208675;23;20413;-77
2023/11/23 00:38:43;;;;;;;16.27;5.00;;;8.90;99.90;;;;;;6207365;23;20051;-76
2023/11/23 00:41:08;;;;;;;17.90;5.65;;;8.90;99.90;;;;;;6208891;23;20000;-77
2023/11/23 00:43:35;;;;;;;16.73;6.53;;;8.90;99.90;;;;;;6205469;23;20577;-76
2023/11/23 00:46:03;;;;;;;16.05;6.03;;;9.00;99.90;;;;;;6208774;23;20007;-76
2023/11/23 00:48:28;;;;;;;13.48;5.88;;;9.00;99.90;;;;;;6207072;23;20013;-76
2023/11/23 00:50:57;;;;;;;17.40;5.82;;;9.00;99.90;;;;;;6208851;23;20027;-76
2023/11/23 00:53:22;;;;;;;12.43;5.38;;;9.00;99.90;;;;;;6207367;23;20013;-78
2023/11/23 00:55:48;;;;;;;13.82;6.35;;;9.00;99.90;;;;;;6208316;23;20008;-77
2023/11/23 00:58:14;;;;;;;16.80;5.72;;;9.00;99.90;;;;;;6206625;23;20016;-76
2023/11/23 01:00:40;;;;;;;15.23;6.07;;;9.00;99.90;;;;;;6207449;23;20043;-77
2023/11/23 01:03:06;;;;;;;14.85;4.63;;;9.00;99.90;;;;;;6208611;23;20012;-76
2023/11/23 01:05:32;;;;;;;14.23;5.68;;;9.10;99.90;;;;;;6207190;23;20019;-77
2023/11/23 01:07:57;;;;;;;14.65;5.55;;;9.10;99.90;;;;;;6209311;23;20009;-77
2023/11/23 01:10:24;;;;;;;16.90;5.88;;;9.10;99.90;;;;;;6207192;23;20016;-77
2023/11/23 01:12:51;;;;;;;14.18;4.82;;;9.10;99.90;;;;;;6210236;23;20461;-77
2023/11/23 01:15:17;;;;;;;17.50;6.57;;;9.00;99.90;;;;;;6207054;23;20016;-78
2023/11/23 01:17:43;;;;;;;14.55;4.88;;;9.00;99.90;;;;;;6209862;23;20012;-78
2023/11/23 01:20:09;;;;;;;15.27;5.85;;;9.10;99.90;;;;;;6208336;23;20078;-75
2023/11/23 01:22:36;;;;;;;14.75;5.43;;;9.00;99.90;;;;;;6208530;23;20008;-76
2023/11/23 01:25:04;;;;;;;16.77;5.18;;;9.00;99.90;;;;;;6210089;23;20036;-76
2023/11/23 01:27:29;;;;;;;11.73;4.93;;;9.00;99.90;;;;;;6208800;23;20451;-76
2023/11/23 01:29:55;;;;;;;11.95;4.63;;;9.10;99.90;;;;;;6209663;23;20019;-77
2023/11/23 01:32:20;;;;;;;12.25;4.65;;;9.10;99.90;;;;;;6206761;23;20036;-77
2023/11/23 01:34:46;;;;;;;9.70;4.32;;;9.10;99.90;;;;;;6209698;23;20016;-77
2023/11/23 01:37:11;;;;;;;12.25;4.90;;;9.20;99.90;;;;;;6209847;23;20004;-77
2023/11/23 01:39:37;;;;;;;11.32;4.28;;;9.20;99.90;;;;;;6208730;23;20012;-77
2023/11/23 01:42:03;;;;;;;11.05;4.57;;;9.20;99.90;;;;;;6208051;23;20015;-77
2023/11/23 01:44:28;;;;;;;21.08;4.50;;;9.20;99.90;;;;;;6208582;23;20082;-78
2023/11/23 01:46:54;;;;;;;12.50;4.25;;;9.20;99.90;;;;;;6209496;23;20021;-77
2023/11/23 01:49:21;;;;;;;16.13;5.07;;;9.20;99.90;;;;;;6208648;23;20017;-76
2023/11/23 01:51:47;;;;;;;15.27;3.75;;;9.20;99.90;;;;;;6209975;23;20009;-78
2023/11/23 01:54:13;;;;;;;13.85;4.20;;;9.20;99.90;;;;;;6207362;23;20027;-76
2023/11/23 01:56:41;;;;;;;11.93;3.88;;;9.20;99.90;;;;;;6206225;23;20084;-77
2023/11/23 01:59:06;;;;;;;6.65;2.90;;;9.30;99.90;;;;;;6208214;23;20358;-78
2023/11/23 02:01:32;;;;;;;14.20;3.70;;;9.20;99.90;;;;;;6208520;23;20077;-77
2023/11/23 02:03:58;;;;;;;8.63;3.22;;;9.20;99.90;;;;;;6209787;23;20319;-76
2023/11/23 02:06:23;;;;;;;13.90;2.67;;;9.10;99.90;;;;;;6206220;23;20087;-76
2023/11/23 02:08:49;;;;;;;6.32;2.80;;;9.10;99.90;;;;;;6207779;23;20043;-76
2023/11/23 02:11:16;;;;;;;8.30;3.08;;;9.00;99.90;;;;;;6208223;23;20013;-78
2023/11/23 02:13:42;;;;;;;9.93;3.70;;;9.00;99.90;;;;;;6206798;23;20028;-76
2023/11/23 02:16:08;;;;;;;12.52;3.45;;;8.90;99.90;;;;;;6209591;23;20043;-77
2023/11/23 02:18:37;;;;;;;8.32;3.30;;;8.90;99.90;;;;;;6207684;23;20008;-76
2023/11/23 02:21:04;;;;;;;11.07;2.78;;;8.80;99.90;;;;;;6207727;23;20004;-76
2023/11/23 02:23:31;;;;;;;6.18;3.15;;;8.80;99.90;;;;;;6208316;23;20020;-76
2023/11/23 02:25:57;;;;;;;9.70;2.72;;;8.80;99.90;;;;;;6207651;23;19997;-77
2023/11/23 02:28:23;;;;;;;8.25;2.65;;;8.70;99.90;;;;;;6206615;23;20013;-76
2023/11/23 02:30:48;;;;;;;10.05;3.95;;;8.70;99.90;;;;;;6209672;23;20008;-77
2023/11/23 02:33:14;;;;;;;10.70;3.15;;;8.70;99.90;;;;;;6209668;23;20390;-76
2023/11/23 02:35:40;;;;;;;15.95;3.88;;;8.70;99.90;;;;;;6206728;23;20035;-78
2023/11/23 02:38:05;;;;;;;11.23;3.17;;;8.70;99.90;;;;;;6209057;23;20055;-76
2023/11/23 02:40:31;;;;;;;20.55;4.35;;;8.70;99.90;;;;;;6207732;23;20012;-76
2023/11/23 02:42:56;;;;;;;8.75;3.75;;;8.80;99.90;;;;;;6207532;23;20773;-77
2023/11/23 02:45:22;;;;;;;8.23;2.72;;;8.80;99.90;;;;;;6206162;23;20016;-76
2023/11/23 02:47:49;;;;;;;8.48;2.63;;;8.80;99.90;;;;;;6207824;23;20107;-77
2023/11/23 02:50:14;;;;;;;12.55;2.80;;;8.90;99.90;;;;;;6207318;23;20017;-77
2023/11/23 02:52:40;;;;;;;8.15;2.80;;;8.80;99.90;;;;;;6206124;23;20083;-76
2023/11/23 02:55:07;;;;;;;11.25;3.35;;;8.90;99.90;;;;;;6209054;23;20040;-78
2023/11/23 02:57:34;;;;;;;6.53;2.35;;;8.80;99.90;;;;;;6207683;23;20035;-77
2023/11/23 03:00:00;;;;;;;9.82;2.72;;;8.80;99.90;;;;;;6209243;23;20012;-77
2023/11/23 03:02:25;;;;;;;14.02;2.67;;;8.80;99.90;;;;;;6206067;23;20013;-76
2023/11/23 03:04:53;;;;;;;10.10;2.35;;;8.70;99.90;;;;;;6209318;23;20027;-75
2023/11/23 03:07:19;;;;;;;9.13;2.88;;;8.70;99.90;;;;;;6205940;23;20413;-76
2023/11/23 03:09:45;;;;;;;8.15;1.80;;;8.70;99.90;;;;;;6207491;23;20036;-77
2023/11/23 03:12:11;;;;;;;9.18;2.20;;;8.70;99.90;;;;;;6207401;23;20070;-76
2023/11/23 03:14:37;;;;;;;5.93;1.67;;;8.80;99.90;;;;;;6206233;23;20095;-76
2023/11/23 03:17:04;;;;;;;5.45;1.65;;;8.70;99.90;;;;;;6209253;23;20397;-76
2023/11/23 03:19:29;;;;;;;16.35;3.50;;;8.70;99.90;;;;;;6207355;23;20063;-76
2023/11/23 03:21:55;;;;;;;4.40;1.40;;;8.70;99.90;;;;;;6207573;23;20012;-76
2023/11/23 03:24:20;;;;;;;4.43;1.58;;;8.70;99.90;;;;;;6207861;23;20004;-78
2023/11/23 03:26:46;;;;;;;9.60;2.60;;;8.80;99.90;;;;;;6208368;23;20016;-76
2023/11/23 03:29:12;;;;;;;11.75;2.00;;;8.90;99.90;;;;;;6208725;23;20080;-77
2023/11/23 03:31:38;;;;;;;13.75;2.17;;;8.90;99.90;;;;;;6206150;23;20517;-78
2023/11/23 03:34:03;;;;;;;5.93;1.50;;;9.00;99.90;;;;;;6208932;23;20013;-77
2023/11/23 03:36:29;;;;;;;11.07;2.22;;;9.00;99.90;;;;;;6207715;23;20009;-76
2023/11/23 03:38:55;;;;;;;16.40;2.63;;;9.10;99.90;;;;;;6208494;23;20004;-77
2023/11/23 03:41:20;;;;;;;12.77;1.70;;;9.00;99.90;;;;;;6207760;23;20024;-77
2023/11/23 03:43:46;;;;;;;6.97;1.80;;;9.10;99.90;;;;;;6208554;23;20016;-77
2023/11/23 03:46:11;;;;;;;7.32;1.88;;;9.00;99.90;;;;;;6208936;23;20000;-77
2023/11/23 03:48:37;;;;;;;7.00;1.95;;;9.00;99.90;;;;;;6207223;23;20012;-76
2023/11/23 03:51:02;;;;;;;5.97;1.70;;;9.00;99.90;;;;;;6206700;23;20012;-78
2023/11/23 03:53:28;;;;;;;6.72;1.67;;;9.00;99.90;;;;;;6207578;23;20453;-76
2023/11/23 03:55:53;;;;;;;8.82;2.20;;;9.00;99.90;;;;;;6208805;23;20001;-77
2023/11/23 03:58:19;;;;;;;7.63;1.40;;;9.00;99.90;;;;;;6207006;23;20023;-78
2023/11/23 04:00:45;;;;;;;6.93;1.63;;;9.00;99.90;;;;;;6208957;23;20474;-75
2023/11/23 04:03:10;;;;;;;4.72;1.40;;;9.00;99.90;;;;;;6207044;23;20005;-76
2023/11/23 04:05:37;;;;;;;7.43;1.88;;;9.00;99.90;;;;;;6205443;23;20016;-76
2023/11/23 04:08:04;;;;;;;7.40;1.35;;;8.90;99.90;;;;;;6208555;23;20009;-77
2023/11/23 04:10:30;;;;;;;20.73;2.58;;;8.90;99.90;;;;;;6207009;23;20478;-78
2023/11/23 04:12:55;;;;;;;6.85;1.30;;;8.90;99.90;;;;;;6206947;23;20012;-77
2023/11/23 04:15:21;;;;;;;4.47;1.25;;;8.90;99.90;;;;;;6205007;23;20334;-77
2023/11/23 04:17:46;;;;;;;10.07;2.38;;;8.90;99.90;;;;;;6208241;23;20447;-77
2023/11/23 04:20:12;;;;;;;5.78;1.02;;;8.90;99.90;;;;;;6208752;23;20012;-78
2023/11/23 04:22:37;;;;;;;7.18;1.40;;;8.90;99.90;;;;;;6208008;23;20502;-77
2023/11/23 04:25:03;;;;;;;4.50;1.05;;;8.90;99.90;;;;;;6207239;23;20036;-78
2023/11/23 04:27:29;;;;;;;6.78;1.33;;;8.90;99.90;;;;;;6205515;23;20028;-76
2023/11/23 04:29:55;;;;;;;5.90;1.63;;;8.80;99.90;;;;;;6207106;23;20082;-78
2023/11/23 04:32:21;;;;;;;8.18;1.52;;;8.80;99.90;;;;;;6207527;23;20009;-78
2023/11/23 04:34:47;;;;;;;9.52;1.35;;;8.80;99.90;;;;;;6208538;23;20020;-76
2023/11/23 04:37:12;;;;;;;5.35;2.00;;;8.80;99.90;;;;;;6206878;23;20005;-76
2023/11/23 04:39:38;;;;;;;4.38;1.73;;;8.80;99.90;;;;;;6205472;23;20016;-75
2023/11/23 04:42:04;;;;;;;5.57;1.63;;;8.80;99.90;;;;;;6207017;23;20032;-74
2023/11/23 04:44:30;;;;;;;10.32;2.65;;;8.80;99.90;;;;;;6207547;23;20102;-77
2023/11/23 04:46:55;;;;;;;4.50;1.83;;;8.80;99.90;;;;;;6210700;23;20066;-77
2023/11/23 04:49:21;;;;;;;5.60;1.70;;;8.80;99.90;;;;;;6209299;23;20019;-78
2023/11/23 04:51:47;;;;;;;6.88;1.40;;;8.80;99.90;;;;;;6208424;23;20512;-78
2023/11/23 04:54:12;;;;;;;6.03;1.67;;;8.80;99.90;;;;;;6208861;23;20005;-77
2023/11/23 04:56:38;;;;;;;12.75;2.80;;;8.80;99.90;;;;;;6208882;23;20016;-77
2023/11/23 04:59:04;;;;;;;14.30;2.67;;;8.80;99.90;;;;;;6208575;23;20012;-76
2023/11/23 05:01:30;;;;;;;10.27;2.13;;;8.80;99.90;;;;;;6208624;23;20019;-77
2023/11/23 05:03:55;;;;;;;8.88;1.80;;;8.80;99.90;;;;;;6208759;23;20013;-78
2023/11/23 05:06:22;;;;;;;8.90;1.80;;;8.80;99.90;;;;;;6207566;23;20009;-77
2023/11/23 05:08:47;;;;;;;13.27;2.67;;;8.80;99.90;;;;;;6210114;23;19997;-77
2023/11/23 05:11:13;;;;;;;8.35;1.60;;;8.90;99.90;;;;;;6208424;23;20009;-76
2023/11/23 05:13:38;;;;;;;17.65;2.20;;;8.90;99.90;;;;;;6207318;23;20011;-77
2023/11/23 05:16:06;;;;;;;9.88;1.50;;;8.90;99.90;;;;;;6208569;23;20008;-76
2023/11/23 05:18:32;;;;;;;15.52;2.03;;;8.90;99.90;;;;;;6209309;23;20016;-76
2023/11/23 05:20:57;;;;;;;7.63;2.30;;;8.90;99.90;;;;;;6208770;23;20091;-76
2023/11/23 05:23:24;;;;;;;9.32;1.80;;;8.90;99.90;;;;;;6208849;23;20025;-76
2023/11/23 05:25:49;;;;;;;6.30;1.58;;;8.90;99.90;;;;;;6210228;23;20066;-77
2023/11/23 05:28:16;;;;;;;7.15;1.40;;;8.90;99.90;;;;;;6208107;23;20367;-76
2023/11/23 05:30:42;;;;;;;11.75;1.60;;;9.00;99.90;;;;;;6207044;23;20016;-76
2023/11/23 05:33:08;;;;;;;12.27;3.20;;;9.00;99.90;;;;;;6210440;23;20008;-76
2023/11/23 05:35:34;;;;;;;9.18;1.80;;;9.00;99.90;;;;;;6208705;23;20017;-76
2023/11/23 05:37:59;;;;;;;7.20;1.75;;;9.00;99.90;;;;;;6209885;23;20072;-76
2023/11/23 05:40:25;;;;;;;6.15;1.60;;;9.00;99.90;;;;;;6208921;23;20510;-76
2023/11/23 05:42:51;;;;;;;13.20;2.22;;;9.00;99.90;;;;;;6208903;23;20004;-76
2023/11/23 05:45:18;;;;;;;10.27;1.55;;;9.00;99.90;;;;;;6210465;23;20012;-76
2023/11/23 05:47:44;;;;;;;8.10;1.35;;;9.00;99.90;;;;;;6207861;23;20012;-77
2023/11/23 05:50:11;;;;;;;7.57;1.60;;;9.00;99.90;;;;;;6210217;23;20103;-76
2023/11/23 05:52:37;;;;;;;7.53;1.30;;;9.00;99.90;;;;;;6208933;23;20012;-77
2023/11/23 05:55:03;;;;;;;6.45;1.63;;;9.00;99.90;;;;;;6208337;23;20012;-76
2023/11/23 05:57:28;;;;;;;7.38;1.25;;;9.00;99.90;;;;;;6208490;23;20110;-76
2023/11/23 05:59:57;;;;;;;11.20;1.83;;;9.00;99.90;;;;;;6208600;23;20435;-74
2023/11/23 06:02:22;;;;;;;7.65;1.73;;;9.00;99.90;;;;;;6207628;23;20020;-77
2023/11/23 06:04:48;;;;;;;5.95;2.03;;;9.00;99.90;;;;;;6207049;23;20012;-76
2023/11/23 06:07:15;;;;;;;9.13;2.10;;;9.00;99.90;;;;;;6208797;23;20027;-77
2023/11/23 06:09:42;;;;;;;5.80;1.27;;;9.00;99.90;;;;;;6207643;23;20005;-76
2023/11/23 06:12:09;;;;;;;7.50;1.30;;;9.00;99.90;;;;;;6209160;23;20009;-76
2023/11/23 06:14:36;;;;;;;8.73;1.23;;;9.00;99.90;;;;;;6205889;23;20027;-76
2023/11/23 06:17:03;;;;;;;10.27;2.30;;;9.00;99.90;;;;;;6208851;23;20032;-77
2023/11/23 06:19:29;;;;;;;10.18;1.90;;;9.00;99.90;;;;;;6207332;23;20091;-76
2023/11/23 06:21:55;;;;;;;6.60;1.63;;;9.00;99.90;;;;;;6208731;23;20024;-76
2023/11/23 06:24:21;;;;;;;7.53;1.30;;;9.00;99.90;;;;;;6205408;23;20018;-77
2023/11/23 06:26:47;;;;;;;9.95;1.40;;;9.00;99.90;;;;;;6205373;23;20087;-76
2023/11/23 06:29:13;;;;;;;8.32;1.17;;;9.00;99.90;;;;;;6209893;23;20012;-78
2023/11/23 06:31:39;;;;;;;11.32;1.35;;;9.00;99.90;;;;;;6208749;23;20378;-78
2023/11/23 06:34:04;;;;;;;6.70;1.27;;;9.00;99.90;;;;;;6209576;23;20392;-76
2023/11/23 06:36:30;;;;;;;16.60;1.70;;;8.90;99.90;;;;;;6208323;23;20021;-77
2023/11/23 06:38:56;;;;;;;7.55;1.50;;;9.00;99.90;;;;;;6208931;23;20017;-77
2023/11/23 06:41:22;;;;;;;4.93;1.30;;;9.00;99.90;;;;;;6208565;23;20337;-76
2023/11/23 06:43:51;;;;;;;6.25;1.27;;;9.00;99.90;;;;;;6208303;23;20008;-76
2023/11/23 06:46:18;;;;;;;8.23;1.40;;;9.00;99.90;;;;;;6208311;23;20075;-76
2023/11/23 06:48:44;;;;;;;6.60;2.08;;;9.00;99.90;;;;;;6203863;23;20339;-76
2023/11/23 06:51:11;;;;;;;5.68;1.20;;;9.00;99.90;;;;;;6206231;23;20014;-76
2023/11/23 06:53:44;;;;;;;6.43;1.52;;;9.00;99.90;;;;;;6204675;23;20015;-77
2023/11/23 06:56:12;;;;;;;6.40;1.30;;;9.00;99.90;;;;;;6208215;23;20032;-76
2023/11/23 06:58:42;;;;;;;10.32;1.17;;;9.00;99.90;;;;;;6206510;23;20077;-77
2023/11/23 07:01:10;;;;;;;6.85;1.38;;;9.00;99.90;;;;;;6209624;23;20028;-76
2023/11/23 07:03:37;;;;;;;14.48;1.92;;;9.00;99.90;;;;;;6206692;23;20017;-77
2023/11/23 07:06:03;;;;;;;5.43;1.20;;;9.00;99.90;;;;;;6208220;23;20020;-77
2023/11/23 07:08:29;;;;;;;7.40;1.40;;;9.00;99.90;;;;;;6207428;23;20013;-76
2023/11/23 07:10:54;;;;;;;10.88;1.80;;;9.00;99.90;;;;;;6208623;23;20019;-76
2023/11/23 07:13:20;;;;;;;8.02;1.85;;;9.00;99.90;;;;;;6206995;23;20017;-78
2023/11/23 07:15:46;;;;;;;7.63;1.77;;;9.00;99.90;;;;;;6210195;23;20005;-76
2023/11/23 07:18:13;;;;;;;7.47;1.73;;;9.00;99.90;;;;;;6209776;23;20012;-77
2023/11/23 07:20:39;;;;;;;9.10;1.33;;;9.10;99.90;;;;;;6208948;23;20012;-78
2023/11/23 07:23:04;;;;;;;6.15;1.33;;;9.10;99.90;;;;;;6209783;23;20013;-76
2023/11/23 07:25:31;;;;;;;16.05;1.95;;;9.00;99.90;;;;;;6206925;23;20343;-77
2023/11/23 07:27:58;;;;;;;13.70;1.90;;;9.00;99.90;;;;;;6210126;23;20067;-76
2023/11/23 07:30:23;;;;;;;9.02;1.98;;;9.00;99.90;;;;;;6208917;23;20040;-76
2023/11/23 07:32:49;;;;;;;8.55;1.60;;;9.00;99.90;;;;;;6210105;23;20020;-76
2023/11/23 07:35:15;;;;;;;8.55;1.45;;;9.00;99.90;;;;;;6208395;23;20070;-76
2023/11/23 07:37:41;;;;;;;14.32;1.33;;;9.00;99.90;;;;;;6206501;23;20005;-76
2023/11/23 07:40:12;;;;;;;8.02;2.30;;;9.00;99.90;;;;;;6207910;23;20083;-78
2023/11/23 07:42:39;;;;;;;;;;;9.00;99.90;;;;;;6207393;23;20149;-77
2023/11/23 07:45:06;;;;;;;6.50;1.20;;;9.00;99.90;;;;;;6209499;23;20344;-76
2023/11/23 07:47:31;;;;;;;5.65;1.20;;;9.00;99.90;;;;;;6205719;23;20005;-77
2023/11/23 07:49:57;;;;;;;9.05;1.98;;;9.00;99.90;;;;;;6207198;23;20082;-76
2023/11/23 07:52:23;;;;;;;6.40;1.55;;;9.10;99.90;;;;;;6207127;23;20407;-77
2023/11/23 07:54:49;;;;;;;10.07;1.20;;;9.10;99.90;;;;;;6209857;23;20028;-77
2023/11/23 07:57:15;;;;;;;11.95;1.42;;;9.20;99.90;;;;;;6208018;23;20008;-76
2023/11/23 07:59:43;;;;;;;8.25;1.80;;;9.20;99.90;;;;;;6209227;23;20373;-77
2023/11/23 08:02:09;;;;;;;7.43;2.05;;;9.20;99.90;;;;;;6210303;23;20015;-77
2023/11/23 08:04:35;;;;;;;8.32;1.38;;;9.20;99.90;;;;;;6206987;23;20008;-78
2023/11/23 08:07:00;;;;;;;11.48;2.40;;;9.20;99.90;;;;;;6210458;23;20005;-77
2023/11/23 08:09:27;;;;;;;10.27;1.90;;;9.30;99.90;;;;;;6206993;23;20397;-78
2023/11/23 08:11:53;;;;;;;8.90;1.90;;;9.40;99.90;;;;;;6210124;23;20004;-77
2023/11/23 08:14:20;;;;;;;5.80;1.27;;;9.40;99.90;;;;;;6207153;23;20063;-77
2023/11/23 08:16:45;;;;;;;9.80;1.58;;;9.50;99.90;;;;;;6209470;23;20040;-78
2023/11/23 08:19:14;;;;;;;7.93;1.52;;;9.60;99.90;;;;;;6208315;23;20013;-77
2023/11/23 08:21:40;;;;;;;12.43;3.50;;;9.70;99.90;;;;;;6207177;23;20005;-76
2023/11/23 08:24:08;;;;;;;16.52;2.22;;;9.80;99.90;;;;;;6210775;23;20447;-78
2023/11/23 08:26:33;;;;;;;8.38;1.77;;;9.80;99.90;;;;;;6209532;23;20042;-78
2023/11/23 08:28:59;;;;;;;5.65;1.17;;;9.80;99.90;;;;;;6210379;23;20389;-77
2023/11/23 08:31:28;;;;;;;5.60;1.42;;;9.90;99.90;;;;;;6207735;23;20008;-77
2023/11/23 08:33:55;;;;;;;7.35;1.23;;;9.90;99.90;;;;;;6208613;23;20009;-79
2023/11/23 08:36:21;;;;;;;8.02;1.38;;;10.00;99.90;;;;;;6208555;23;20057;-76
2023/11/23 08:38:47;;;;;;;5.53;1.77;;;10.00;99.90;;;;;;6208627;23;20335;-77
2023/11/23 08:41:13;;;;;;;4.53;1.45;;;10.00;99.90;;;;;;6207645;23;20023;-77
2023/11/23 08:43:38;;;;;;;8.98;1.30;;;10.10;99.90;;;;;;6208450;23;20375;-77
2023/11/23 08:46:07;;;;;;;10.52;1.02;;;10.10;99.90;;;;;;6209531;23;20005;-78
2023/11/23 08:48:32;;;;;;;7.63;0.80;;;10.20;99.90;;;;;;6206381;23;20008;-77
2023/11/23 08:50:58;;;;;;;7.50;1.30;;;10.30;99.90;;;;;;6210672;23;20473;-77
2023/11/23 08:53:24;;;;;;;11.73;1.67;;;10.40;99.90;;;;;;6207048;23;20545;-76
2023/11/23 08:55:51;;;;;;;7.75;1.40;;;10.30;99.90;;;;;;6209956;23;20012;-77
2023/11/23 08:58:17;;;;;;;7.40;1.40;;;10.30;99.90;;;;;;6210116;23;20012;-77
2023/11/23 09:00:42;;;;;;;7.50;1.65;;;10.40;99.90;;;;;;6207058;23;20067;-77
2023/11/23 09:03:09;;;;;;;5.82;1.17;;;10.50;99.90;;;;;;6208288;23;20011;-76
2023/11/23 09:05:34;;;;;;;8.02;1.23;;;10.50;99.90;;;;;;6207160;23;20017;-77
2023/11/23 09:08:06;;;;;;;7.80;1.92;;;10.60;99.90;;;;;;6210239;23;20012;-78
2023/11/23 09:10:35;;;;;;;6.97;1.05;;;10.70;99.90;;;;;;6207456;23;20087;-78
2023/11/23 09:13:01;;;;;;;8.55;1.20;;;10.60;99.90;;;;;;6210161;23;20008;-76
2023/11/23 09:15:31;;;;;;;6.65;1.55;;;10.70;99.90;;;;;;6208444;23;20015;-78
2023/11/23 09:17:57;;;;;;;6.50;1.13;;;10.70;99.90;;;;;;6209783;23;20088;-77
2023/11/23 09:20:23;;;;;;;4.57;1.10;;;10.70;99.90;;;;;;6209263;23;20040;-77
2023/11/23 09:22:49;;;;;;;8.32;1.30;;;10.80;99.90;;;;;;6207756;23;20520;-78
2023/11/23 09:25:15;;;;;;;9.60;2.05;;;10.80;99.90;;;;;;6210279;23;20009;-78
2023/11/23 09:27:40;;;;;;;7.25;1.10;;;10.70;99.90;;;;;;6208614;23;20027;-76
2023/11/23 09:30:06;;;;;;;9.65;1.10;;;10.70;99.90;;;;;;6209419;23;20014;-76
2023/11/23 09:32:35;;;;;;;7.50;0.90;;;10.80;99.90;;;;;;6208038;23;20020;-76
2023/11/23 09:35:01;;;;;;;6.82;0.80;;;11.00;99.90;;;;;;6209696;23;20015;-76
2023/11/23 09:37:28;;;;;;;7.00;0.88;;;11.10;99.90;;;;;;6210518;23;20040;-77
2023/11/23 09:39:53;;;;;;;11.18;1.00;;;11.20;99.90;;;;;;6209726;23;20017;-77
2023/11/23 09:42:20;;;;;;;6.97;0.95;;;11.30;99.90;;;;;;6208899;23;20082;-76
2023/11/23 09:44:46;;;;;;;6.30;1.23;;;11.50;99.90;;;;;;6211017;23;20470;-77
2023/11/23 09:47:15;;;;;;;8.98;0.90;;;11.60;99.90;;;;;;6209413;23;20051;-77
2023/11/23 09:49:41;;;;;;;4.13;0.70;;;11.70;99.90;;;;;;6210329;23;20005;-76
2023/11/23 09:52:07;;;;;;;10.23;1.00;;;11.70;99.90;;;;;;6211203;23;20009;-77
2023/11/23 09:54:33;;;;;;;4.78;0.75;;;11.90;99.90;;;;;;6209512;23;20005;-77
2023/11/23 09:56:59;;;;;;;3.05;0.75;;;12.00;99.90;;;;;;6209814;23;20005;-77
2023/11/23 09:59:26;;;;;;;9.75;1.02;;;12.10;99.90;;;;;;6208648;23;20063;-77
2023/11/23 10:01:58;;;;;;;4.35;1.15;;;12.10;99.90;;;;;;6208985;23;20028;-78
2023/11/23 10:04:24;;;;;;;8.00;0.82;;;12.20;99.90;;;;;;6208608;23;20031;-79
2023/11/23 10:06:50;;;;;;;5.70;0.95;;;12.10;99.90;;;;;;6210856;23;20027;-77
2023/11/23 10:09:16;;;;;;;6.32;0.73;;;12.20;99.90;;;;;;6208593;23;20774;-76
2023/11/23 10:11:42;;;;;;;3.15;0.55;;;12.10;99.90;;;;;;6210794;23;20088;-77
2023/11/23 10:14:08;;;;;;;4.35;1.23;;;12.10;99.90;;;;;;6211227;23;20024;-76
2023/11/23 10:16:35;;;;;;;3.55;0.63;;;12.10;99.90;;;;;;6209584;23;20328;-76
2023/11/23 10:19:00;;;;;;;4.88;1.50;;;12.10;99.90;;;;;;6210476;23;20009;-77
2023/11/23 10:21:28;;;;;;;5.30;0.50;;;12.10;99.90;;;;;;6207710;23;20013;-77
2023/11/23 10:23:54;;;;;;;3.42;0.73;;;12.20;99.90;;;;;;6210917;23;20009;-77
2023/11/23 10:26:20;;;;;;;6.72;0.70;;;12.30;99.90;;;;;;6208460;23;20654;-77
2023/11/23 10:28:46;;;;;;;7.85;0.70;;;12.20;99.90;;;;;;6210791;23;20005;-76
2023/11/23 10:31:12;;;;;;;6.00;0.50;;;12.20;99.90;;;;;;6209952;23;20035;-78
2023/11/23 10:33:38;;;;;;;3.65;0.50;;;12.30;99.90;;;;;;6209564;23;20005;-79
2023/11/23 10:36:06;;;;;;;5.00;0.90;;;12.40;99.90;;;;;;6210763;23;20032;-77
2023/11/23 10:38:39;;;;;;;5.25;0.73;;;12.30;99.90;;;;;;6209704;23;20378;-76
2023/11/23 10:41:06;;;;;;;8.80;0.88;;;12.40;99.90;;;;;;6208940;23;20013;-75
2023/11/23 10:43:38;;;;;;;2.20;0.60;;;12.30;99.90;;;;;;6209707;23;20020;-77
2023/11/23 10:46:08;;;;;;;3.95;0.65;;;12.40;99.90;;;;;;6211243;23;20011;-76
2023/11/23 10:48:35;;;;;;;1.70;0.38;;;12.40;99.90;;;;;;6208653;23;20012;-77
2023/11/23 10:51:06;;;;;;;7.07;0.52;;;12.50;99.90;;;;;;6210657;23;20466;-77
2023/11/23 10:53:32;;;;;;;7.50;1.05;;;12.60;99.90;;;;;;6207813;23;20023;-78
2023/11/23 10:56:01;;;;;;;9.95;1.13;;;12.70;99.90;;;;;;6210867;23;20084;-78
2023/11/23 10:58:33;;;;;;;4.38;0.70;;;12.70;99.90;;;;;;6207441;23;20406;-78
2023/11/23 11:01:01;;;;;;;4.32;0.70;;;12.80;99.90;;;;;;6210662;23;20139;-77
2023/11/23 11:03:27;;;;;;;5.85;0.70;;;12.80;99.90;;;;;;6208817;23;20350;-75
2023/11/23 11:05:55;;;;;;;10.15;1.35;;;12.70;99.90;;;;;;6210867;23;20387;-76
2023/11/23 11:08:26;;;;;;;4.75;0.95;;;12.80;99.90;;;;;;6208916;23;20043;-76
2023/11/23 11:10:53;;;;;;;6.88;0.95;;;12.80;99.90;;;;;;6208806;23;20308;-77
2023/11/23 11:13:24;;;;;;;4.07;0.90;;;12.70;99.90;;;;;;6211193;23;20024;-78
2023/11/23 11:15:55;;;;;;;;;;;12.80;99.90;;;;;;6208243;23;20032;-78
2023/11/23 11:21:13;;;;;;;10.63;1.48;;;12.80;99.90;;;;;;6202203;22;20218;-74
2023/11/23 11:23:52;;;;;;;4.53;0.63;;;12.80;99.90;;;;;;6206416;22;20454;-76
2023/11/23 11:26:20;;;;;;;7.15;0.95;;;12.70;99.90;;;;;;6208131;23;20065;-74
2023/11/23 11:29:05;;;;;;;10.13;1.08;;;12.80;99.90;;;;;;6207192;23;20015;-76
2023/11/23 11:31:41;;;;;;;5.47;0.60;;;12.70;99.90;;;;;;6207212;22;20524;-75
2023/11/23 11:34:17;;;;;;;4.35;1.05;;;12.80;99.90;;;;;;6210018;22;20009;-74
2023/11/23 11:36:44;;;;;;;7.22;1.25;;;12.80;99.90;;;;;;6207129;22;20028;-75
2023/11/23 11:39:13;;;;;;;4.82;0.68;;;12.80;99.90;;;;;;6207611;23;20009;-75
2023/11/23 11:41:38;;;;;;;5.07;0.77;;;12.80;99.90;;;;;;6206798;22;20501;-75
2023/11/23 11:44:05;;;;;;;10.02;1.45;;;12.80;99.90;;;;;;6207991;23;20067;-75
2023/11/23 11:46:33;;;;;;;3.33;0.52;;;12.80;99.90;;;;;;6206709;22;20454;-75
2023/11/23 11:48:59;;;;;;;5.13;1.23;;;12.80;99.90;;;;;;6208013;23;20007;-75
2023/11/23 11:51:29;;;;;;;7.38;1.00;;;12.90;99.90;;;;;;6206626;22;20407;-74
2023/11/23 11:53:55;;;;;;;12.68;1.10;;;13.00;99.90;;;;;;6208057;23;20070;-75
2023/11/23 11:56:22;;;;;;;7.70;1.05;;;13.00;99.90;;;;;;6206217;22;20076;-75
2023/11/23 11:58:48;;;;;;;4.95;1.00;;;13.00;99.90;;;;;;6207704;23;20338;-74
2023/11/23 12:01:13;;;;;;;8.10;0.68;;;13.00;99.90;;;;;;6209567;22;20040;-74
2023/11/23 12:03:39;;;;;;;7.25;1.02;;;13.00;99.90;;;;;;6206485;22;20016;-75
2023/11/23 12:06:05;;;;;;;6.07;0.90;;;13.00;99.90;;;;;;6207558;23;20351;-75
2023/11/23 12:08:35;;;;;;;4.88;0.95;;;13.10;99.90;;;;;;6205847;22;20004;-73
2023/11/23 12:11:02;;;;;;;6.53;0.70;;;13.10;99.90;;;;;;6208033;23;20110;-75
2023/11/23 12:13:33;;;;;;;3.97;0.63;;;13.10;99.90;;;;;;6206852;22;20013;-73
2023/11/23 12:15:59;;;;;;;8.27;1.15;;;13.00;99.90;;;;;;6207225;23;20036;-76
2023/11/23 12:18:29;;;;;;;6.65;1.25;;;13.00;99.90;;;;;;6206472;22;20062;-75
2023/11/23 12:20:55;;;;;;;4.80;0.67;;;13.00;99.90;;;;;;6207522;23;20080;-72
2023/11/23 12:23:21;;;;;;;5.57;1.15;;;13.10;99.90;;;;;;6206235;22;20269;-74
2023/11/23 12:25:48;;;;;;;8.40;1.55;;;13.00;99.90;;;;;;6207620;23;20009;-73
2023/11/23 12:28:17;;;;;;;5.60;0.90;;;13.10;99.90;;;;;;6207564;23;20008;-74
2023/11/23 12:30:45;;;;;;;2.00;0.40;;;13.00;99.90;;;;;;6206587;22;20004;-73
2023/11/23 12:33:12;;;;;;;5.97;1.00;;;13.00;99.90;;;;;;6206847;23;20323;-74
2023/11/23 12:35:39;;;;;;;3.55;0.60;;;13.00;99.90;;;;;;6205334;22;20012;-75
2023/11/23 12:38:05;;;;;;;8.48;0.85;;;13.00;99.90;;;;;;6207438;23;20012;-75
2023/11/23 12:40:30;;;;;;;8.40;1.67;;;13.10;99.90;;;;;;6206507;22;20020;-76
2023/11/23 12:42:56;;;;;;;4.88;1.17;;;13.10;99.90;;;;;;6207545;23;20444;-74
2023/11/23 12:45:21;;;;;;;5.47;1.17;;;13.10;99.90;;;;;;6208244;22;20091;-73
2023/11/23 12:47:47;;;;;;;7.50;1.98;;;13.10;99.90;;;;;;6207676;23;20017;-75
2023/11/23 12:50:13;;;;;;;5.95;1.13;;;13.00;99.90;;;;;;6207633;23;20358;-73